Etusivu
METAR-TAF:

METAR-TAF

Lentoasemat :

Denison Municipal Airport

Denison, Iowa, Yhdysvallat

Leveyspiiri: 41-59N, Pituuspiiri: 095-23W, korkeus merenpinnasta: 388 m

Tämänhetkinen sää

Tämä raportti tehtiin 27 minuuttia sitten, kello 22.15 UTC
Tuuli 12 kn pohjoisen/luoteesta puuskistuen 17 kn:hen
Lämpötila -10°C
Kosteus 67%
Ilmanpaine 1037 hPa
Näkyvyys: 16.1 km
Hajonneita pilviä 3600 ft:n korkeudessa

METAR: KDNS 112215Z AUTO 33012G17KT 10SM BKN036 M10/M15 A3062 RMK AO2

Aika: 16:42 (22:42 UTC)


TAF: puuttuu

Säähavainnot ja -ennusteet yli 4000 lentoasemalta (METAR- ja TAF-raportit).

Käytössä olevat sääasemat on merkitty karttaan keltaisilla ja punaisilla pisteillä.

Aseta hiiri pisteen päälle nähdäksesi sääaseman nimen.

Klikkaa sitten nähdäksesi säähavainnot ja -ennusteet.

Kartan vaihtaminen: klikkaa mustalla rastilla varustettuja vihreitä pisteitä, niin voit zoomata sisään; viivalla varustettua vihreää pistettä, niin voit zoomata ulos tai vihreitä nuolia, niin pääset viereisille kartoille.


METAR-TAF: